Time;durP1;ratioP1;P1;durP2;ratioP2;P2;SDS_P1;SDS_P2;PMS_P1;PMS_P2;Temp;Humidity;BMP_temperature;BMP_pressure;BME280_temperature;BME280_humidity;BME280_pressure;Samples;Min_cycle;Max_cycle;Signal;HPM_P1;HPM_P2
2023/06/09 00:02:07;;;;;;;2.80;1.30;;;;;;;;;;5110888;28;20458;-66
2023/06/09 00:04:36;;;;;;;3.00;1.30;;;;;;;;;;5109831;28;20126;-66
2023/06/09 00:07:05;;;;;;;3.00;1.50;;;;;;;;;;5110400;28;20075;-66
2023/06/09 00:09:34;;;;;;;5.82;1.58;;;;;;;;;;5110270;28;20051;-65
2023/06/09 00:12:03;;;;;;;3.08;1.42;;;;;;;;;;5111020;28;20083;-66
2023/06/09 00:14:32;;;;;;;2.55;1.33;;;;;;;;;;5108106;28;20101;-66
2023/06/09 00:17:01;;;;;;;2.03;1.15;;;;;;;;;;5110435;28;20484;-65
2023/06/09 00:19:31;;;;;;;2.20;1.23;;;;;;;;;;5109996;28;20496;-65
2023/06/09 00:22:01;;;;;;;1.90;1.30;;;;;;;;;;5110182;28;20446;-66
2023/06/09 00:24:29;;;;;;;2.15;1.30;;;;;;;;;;5110305;28;20397;-66
2023/06/09 00:26:57;;;;;;;1.20;1.10;;;;;;;;;;5110098;28;20499;-66
2023/06/09 00:29:27;;;;;;;2.67;1.48;;;;;;;;;;5110107;28;20121;-66
2023/06/09 00:31:55;;;;;;;1.63;1.23;;;;;;;;;;5110041;28;20499;-66
2023/06/09 00:34:24;;;;;;;2.15;1.25;;;;;;;;;;5110073;28;20195;-65
2023/06/09 00:36:52;;;;;;;3.70;1.50;;;;;;;;;;5109642;28;20044;-66
2023/06/09 00:39:20;;;;;;;4.05;1.67;;;;;;;;;;5110140;28;20044;-65
2023/06/09 00:41:49;;;;;;;2.28;1.40;;;;;;;;;;5110238;28;20089;-65
2023/06/09 00:44:17;;;;;;;3.35;1.75;;;;;;;;;;5109992;28;20082;-65
2023/06/09 00:46:47;;;;;;;2.25;1.20;;;;;;;;;;5109168;28;20087;-65
2023/06/09 00:49:15;;;;;;;2.28;1.40;;;;;;;;;;5110006;28;20105;-65
2023/06/09 00:51:45;;;;;;;2.53;1.48;;;;;;;;;;5110137;28;20122;-65
2023/06/09 00:54:14;;;;;;;2.53;1.17;;;;;;;;;;5109648;28;20078;-65
2023/06/09 00:56:43;;;;;;;2.97;1.30;;;;;;;;;;5109468;28;20047;-65
2023/06/09 00:59:12;;;;;;;1.83;1.10;;;;;;;;;;5110268;28;20079;-65
2023/06/09 01:01:43;;;;;;;3.75;1.33;;;;;;;;;;5107297;22;20559;-62
2023/06/09 01:04:13;;;;;;;2.58;1.45;;;;;;;;;;5078087;28;20052;-63
2023/06/09 01:06:46;;;;;;;2.13;1.02;;;;;;;;;;5077276;28;20052;-65
2023/06/09 01:09:19;;;;;;;2.97;1.33;;;;;;;;;;5077417;28;20045;-64
2023/06/09 01:11:51;;;;;;;3.63;1.70;;;;;;;;;;5077024;28;20080;-62
2023/06/09 01:14:23;;;;;;;1.70;1.20;;;;;;;;;;5076809;28;20052;-62
2023/06/09 01:16:55;;;;;;;4.55;1.80;;;;;;;;;;5076383;28;20481;-64
2023/06/09 01:19:31;;;;;;;5.10;1.65;;;;;;;;;;5077340;28;20044;-64
2023/06/09 01:22:01;;;;;;;1.83;1.33;;;;;;;;;;5077064;28;20044;-63
2023/06/09 01:24:35;;;;;;;1.88;1.10;;;;;;;;;;5077122;28;20060;-63
2023/06/09 01:27:07;;;;;;;2.65;1.48;;;;;;;;;;5076554;28;20085;-64
2023/06/09 01:29:40;;;;;;;2.58;1.45;;;;;;;;;;5075907;28;20048;-62
2023/06/09 01:32:10;;;;;;;3.17;1.20;;;;;;;;;;5075131;28;20055;-64
2023/06/09 01:34:38;;;;;;;2.22;1.40;;;;;;;;;;5072834;28;20048;-62
2023/06/09 01:37:07;;;;;;;1.70;1.25;;;;;;;;;;5073971;28;20085;-65
2023/06/09 01:39:35;;;;;;;2.10;1.20;;;;;;;;;;5073322;28;20052;-62
2023/06/09 01:42:06;;;;;;;2.55;1.48;;;;;;;;;;5072954;28;20126;-66
2023/06/09 01:44:35;;;;;;;3.30;1.50;;;;;;;;;;5072481;28;20037;-62
2023/06/09 01:47:04;;;;;;;1.75;1.25;;;;;;;;;;5073685;28;20049;-62
2023/06/09 01:49:34;;;;;;;2.40;1.38;;;;;;;;;;5073013;28;20118;-63
2023/06/09 01:52:07;;;;;;;2.10;1.17;;;;;;;;;;5072941;28;20084;-62
2023/06/09 01:54:37;;;;;;;2.08;1.20;;;;;;;;;;5067953;28;20477;-62
2023/06/09 01:57:08;;;;;;;3.60;1.70;;;;;;;;;;5072979;28;20045;-62
2023/06/09 01:59:39;;;;;;;2.78;1.40;;;;;;;;;;5072688;28;20072;-62
2023/06/09 02:02:08;;;;;;;3.20;1.17;;;;;;;;;;5073015;28;20131;-62
2023/06/09 02:04:37;;;;;;;1.48;1.17;;;;;;;;;;5071667;28;20041;-62
2023/06/09 02:07:06;;;;;;;3.17;1.60;;;;;;;;;;5072818;28;20080;-65
2023/06/09 02:09:34;;;;;;;2.10;1.40;;;;;;;;;;5072341;28;20342;-64
2023/06/09 02:12:03;;;;;;;3.38;1.83;;;;;;;;;;5072860;28;20080;-63
2023/06/09 02:14:35;;;;;;;2.20;1.63;;;;;;;;;;5071908;28;20049;-63
2023/06/09 02:17:05;;;;;;;1.92;1.42;;;;;;;;;;5071524;28;20515;-63
2023/06/09 02:19:37;;;;;;;2.30;1.30;;;;;;;;;;5072339;28;20131;-63
2023/06/09 02:22:06;;;;;;;4.20;1.98;;;;;;;;;;5072770;28;20041;-63
2023/06/09 02:24:35;;;;;;;2.40;1.35;;;;;;;;;;5071994;28;20056;-62
2023/06/09 02:27:04;;;;;;;3.78;1.63;;;;;;;;;;5072381;28;20049;-62
2023/06/09 02:29:32;;;;;;;2.63;1.50;;;;;;;;;;5072146;28;20153;-63
2023/06/09 02:32:02;;;;;;;3.55;1.73;;;;;;;;;;5072091;28;20583;-64
2023/06/09 02:34:31;;;;;;;7.30;2.10;;;;;;;;;;5064690;28;20459;-65
2023/06/09 02:37:00;;;;;;;3.80;1.67;;;;;;;;;;5072382;28;20045;-62
2023/06/09 02:39:29;;;;;;;2.70;1.73;;;;;;;;;;5072410;28;20071;-62
2023/06/09 02:41:58;;;;;;;3.67;1.48;;;;;;;;;;5071283;28;20550;-64
2023/06/09 02:44:28;;;;;;;3.15;1.55;;;;;;;;;;5072051;28;20047;-65
2023/06/09 02:46:57;;;;;;;2.65;1.58;;;;;;;;;;5071608;28;20048;-62
2023/06/09 02:49:26;;;;;;;2.85;1.45;;;;;;;;;;5072205;28;20138;-62
2023/06/09 02:51:55;;;;;;;2.13;1.60;;;;;;;;;;5071586;28;20132;-62
2023/06/09 02:54:23;;;;;;;3.58;2.10;;;;;;;;;;5071734;28;20063;-63
2023/06/09 02:56:52;;;;;;;3.00;1.85;;;;;;;;;;5071486;28;20516;-62
2023/06/09 02:59:21;;;;;;;1.75;1.50;;;;;;;;;;5071910;28;20148;-62
2023/06/09 03:01:49;;;;;;;2.42;1.50;;;;;;;;;;5071838;28;20087;-62
2023/06/09 03:04:18;;;;;;;4.38;1.77;;;;;;;;;;5071366;28;20440;-61
2023/06/09 03:06:49;;;;;;;2.53;1.63;;;;;;;;;;5070779;28;20110;-62
2023/06/09 03:09:18;;;;;;;6.50;1.60;;;;;;;;;;5071405;28;20588;-62
2023/06/09 03:11:47;;;;;;;3.00;1.38;;;;;;;;;;5070847;28;20049;-62
2023/06/09 03:14:15;;;;;;;2.92;1.40;;;;;;;;;;5070587;28;20052;-62
2023/06/09 03:16:44;;;;;;;3.15;1.48;;;;;;;;;;5071132;28;20079;-63
2023/06/09 03:19:13;;;;;;;3.03;1.58;;;;;;;;;;5071305;28;20459;-63
2023/06/09 03:21:43;;;;;;;3.17;1.85;;;;;;;;;;5071353;28;20045;-63
2023/06/09 03:24:13;;;;;;;1.42;1.20;;;;;;;;;;5070329;28;20059;-61
2023/06/09 03:26:41;;;;;;;3.92;1.38;;;;;;;;;;5061043;28;20044;-61
2023/06/09 03:29:10;;;;;;;4.78;2.00;;;;;;;;;;5071393;28;20551;-62
2023/06/09 03:31:38;;;;;;;2.63;1.52;;;;;;;;;;5070892;28;20049;-62
2023/06/09 03:34:07;;;;;;;2.45;1.45;;;;;;;;;;5070792;28;20089;-62
2023/06/09 03:36:35;;;;;;;2.40;1.48;;;;;;;;;;5069967;28;20129;-63
2023/06/09 03:39:03;;;;;;;4.60;1.48;;;;;;;;;;5071445;28;20071;-63
2023/06/09 03:41:33;;;;;;;2.65;1.48;;;;;;;;;;5071224;28;20060;-62
2023/06/09 03:44:02;;;;;;;3.03;1.60;;;;;;;;;;5070565;28;20041;-62
2023/06/09 03:46:30;;;;;;;4.30;1.85;;;;;;;;;;5070321;28;20084;-62
2023/06/09 03:48:58;;;;;;;2.53;1.63;;;;;;;;;;5070487;28;20102;-62
2023/06/09 03:51:27;;;;;;;3.30;1.40;;;;;;;;;;5071003;28;20056;-61
2023/06/09 03:53:55;;;;;;;3.67;1.58;;;;;;;;;;5070863;28;20051;-64
2023/06/09 03:56:25;;;;;;;3.30;1.38;;;;;;;;;;5070073;28;20048;-64
2023/06/09 03:58:54;;;;;;;3.40;1.60;;;;;;;;;;5057212;28;20114;-61
2023/06/09 04:01:44;;;;;;;3.22;1.55;;;;;;;;;;5068511;28;20452;-62
2023/06/09 04:04:13;;;;;;;2.08;1.30;;;;;;;;;;5026934;28;20063;-61
2023/06/09 04:06:45;;;;;;;3.25;1.50;;;;;;;;;;5067527;28;20052;-61
2023/06/09 04:09:16;;;;;;;1.50;1.20;;;;;;;;;;5070555;28;20064;-62
2023/06/09 04:11:45;;;;;;;3.25;1.05;;;;;;;;;;5070209;28;20137;-62
2023/06/09 04:14:15;;;;;;;2.75;1.65;;;;;;;;;;5069999;28;20056;-62
2023/06/09 04:16:43;;;;;;;3.38;1.40;;;;;;;;;;5057183;28;20068;-62
2023/06/09 04:19:11;;;;;;;2.65;1.55;;;;;;;;;;5070189;28;20098;-63
2023/06/09 04:21:40;;;;;;;2.53;1.70;;;;;;;;;;5070176;28;20114;-63
2023/06/09 04:24:09;;;;;;;2.03;1.50;;;;;;;;;;5069880;28;20047;-63
2023/06/09 04:26:38;;;;;;;3.28;1.45;;;;;;;;;;5070143;28;20148;-61
2023/06/09 04:29:09;;;;;;;2.47;1.38;;;;;;;;;;5070476;28;20066;-62
2023/06/09 04:31:42;;;;;;;2.42;1.60;;;;;;;;;;5069642;28;20044;-62
2023/06/09 04:34:12;;;;;;;5.45;1.23;;;;;;;;;;5070090;28;20094;-63
2023/06/09 04:36:41;;;;;;;3.88;2.10;;;;;;;;;;5068927;28;20068;-62
2023/06/09 04:39:10;;;;;;;4.43;1.42;;;;;;;;;;5070256;28;20052;-61
2023/06/09 04:41:38;;;;;;;2.92;1.45;;;;;;;;;;5070277;28;20374;-62
2023/06/09 04:44:07;;;;;;;2.03;1.30;;;;;;;;;;5069811;28;20486;-62
2023/06/09 04:46:37;;;;;;;3.30;1.38;;;;;;;;;;5069322;28;20095;-61
2023/06/09 04:49:09;;;;;;;3.45;1.75;;;;;;;;;;5070264;28;20079;-62
2023/06/09 04:51:41;;;;;;;4.55;1.70;;;;;;;;;;5069743;28;20102;-62
2023/06/09 04:54:10;;;;;;;3.22;1.60;;;;;;;;;;5070516;28;20469;-62
2023/06/09 04:56:39;;;;;;;2.58;1.70;;;;;;;;;;5069395;28;20127;-63
2023/06/09 04:59:07;;;;;;;3.13;1.77;;;;;;;;;;5069308;28;20044;-65
2023/06/09 05:01:37;;;;;;;3.80;2.10;;;;;;;;;;5069726;28;20135;-62
2023/06/09 05:04:08;;;;;;;4.85;2.58;;;;;;;;;;5070159;28;20054;-62
2023/06/09 05:06:37;;;;;;;5.85;1.92;;;;;;;;;;5069441;28;20504;-64
2023/06/09 05:09:06;;;;;;;4.15;1.95;;;;;;;;;;5069568;28;20106;-64
2023/06/09 05:11:34;;;;;;;3.28;2.00;;;;;;;;;;5069753;28;20044;-65
2023/06/09 05:14:02;;;;;;;4.00;2.17;;;;;;;;;;5069962;28;20052;-61
2023/06/09 05:16:31;;;;;;;4.10;1.90;;;;;;;;;;5069702;28;20561;-62
2023/06/09 05:18:59;;;;;;;3.20;2.13;;;;;;;;;;5067764;28;20056;-63
2023/06/09 05:21:29;;;;;;;2.38;1.67;;;;;;;;;;5069400;28;20386;-63
2023/06/09 05:23:57;;;;;;;3.03;1.70;;;;;;;;;;5069507;28;20509;-64
2023/06/09 05:26:27;;;;;;;3.55;1.92;;;;;;;;;;5069128;28;20045;-62
2023/06/09 05:28:56;;;;;;;5.78;2.45;;;;;;;;;;5069620;28;20051;-64
2023/06/09 05:31:24;;;;;;;3.83;2.42;;;;;;;;;;5069498;28;20052;-63
2023/06/09 05:33:53;;;;;;;5.00;2.20;;;;;;;;;;5069411;28;20055;-63
2023/06/09 05:36:21;;;;;;;4.35;2.90;;;;;;;;;;5068995;28;20060;-62
2023/06/09 05:38:51;;;;;;;6.28;2.40;;;;;;;;;;5069679;28;20143;-62
2023/06/09 05:41:20;;;;;;;3.38;2.47;;;;;;;;;;5069610;28;20053;-62
2023/06/09 05:43:49;;;;;;;5.20;2.47;;;;;;;;;;5069492;28;20413;-63
2023/06/09 05:46:17;;;;;;;6.13;3.22;;;;;;;;;;5068676;28;20053;-65
2023/06/09 05:48:45;;;;;;;4.60;2.65;;;;;;;;;;5072612;28;20394;-63
2023/06/09 05:51:14;;;;;;;5.65;2.58;;;;;;;;;;5072697;28;20083;-62
2023/06/09 05:53:43;;;;;;;6.15;2.67;;;;;;;;;;5072931;28;20052;-63
2023/06/09 05:56:14;;;;;;;6.75;2.75;;;;;;;;;;5072587;28;20056;-62
2023/06/09 05:58:44;;;;;;;3.70;2.60;;;;;;;;;;5072873;28;20548;-63
2023/06/09 06:01:13;;;;;;;4.93;2.35;;;;;;;;;;5072079;28;20574;-63
2023/06/09 06:03:42;;;;;;;5.80;2.88;;;;;;;;;;5061545;28;20127;-64
2023/06/09 06:06:11;;;;;;;3.17;1.95;;;;;;;;;;5072386;28;20072;-63
2023/06/09 06:08:39;;;;;;;4.95;2.70;;;;;;;;;;5073172;28;20048;-62
2023/06/09 06:11:07;;;;;;;4.07;2.33;;;;;;;;;;5072465;28;20045;-64
2023/06/09 06:13:37;;;;;;;4.28;2.63;;;;;;;;;;5072467;28;20083;-63
2023/06/09 06:16:06;;;;;;;4.28;2.60;;;;;;;;;;5071740;28;20057;-62
2023/06/09 06:18:34;;;;;;;6.97;2.50;;;;;;;;;;5073048;28;20135;-63
2023/06/09 06:21:03;;;;;;;5.38;2.60;;;;;;;;;;5072352;28;20052;-62
2023/06/09 06:23:31;;;;;;;4.30;2.22;;;;;;;;;;5070289;28;20627;-64
2023/06/09 06:26:00;;;;;;;4.05;1.83;;;;;;;;;;5069858;28;20114;-63
2023/06/09 06:28:28;;;;;;;3.65;1.98;;;;;;;;;;5072489;28;20045;-62
2023/06/09 06:30:58;;;;;;;4.50;2.08;;;;;;;;;;5072164;28;20083;-66
2023/06/09 06:33:29;;;;;;;2.85;2.08;;;;;;;;;;5072493;28;20048;-63
2023/06/09 06:35:58;;;;;;;3.22;2.13;;;;;;;;;;5071884;28;20060;-65
2023/06/09 06:38:26;;;;;;;3.60;2.13;;;;;;;;;;5072635;28;20040;-65
2023/06/09 06:40:54;;;;;;;4.90;2.30;;;;;;;;;;5071957;28;20044;-62
2023/06/09 06:43:23;;;;;;;3.90;1.75;;;;;;;;;;5072688;28;20056;-63
2023/06/09 06:45:51;;;;;;;3.10;1.98;;;;;;;;;;5062293;28;20102;-62
2023/06/09 06:48:21;;;;;;;3.67;1.83;;;;;;;;;;5072049;28;20382;-63
2023/06/09 06:50:49;;;;;;;3.72;2.00;;;;;;;;;;5072582;28;20451;-66
2023/06/09 06:53:18;;;;;;;4.40;2.40;;;;;;;;;;5071779;28;20389;-63
2023/06/09 06:55:46;;;;;;;3.67;2.28;;;;;;;;;;5071973;28;20091;-62
2023/06/09 06:58:14;;;;;;;4.75;2.42;;;;;;;;;;5071285;28;20358;-63
2023/06/09 07:00:43;;;;;;;3.45;2.08;;;;;;;;;;5071497;28;20052;-64
2023/06/09 07:03:12;;;;;;;4.82;2.40;;;;;;;;;;5071451;28;20550;-64
2023/06/09 07:05:42;;;;;;;2.58;1.67;;;;;;;;;;5071224;28;20175;-63
2023/06/09 07:08:10;;;;;;;3.63;2.20;;;;;;;;;;5071845;28;20052;-63
2023/06/09 07:10:39;;;;;;;3.58;2.40;;;;;;;;;;5072020;28;20097;-62
2023/06/09 07:13:08;;;;;;;4.22;2.13;;;;;;;;;;5071313;28;20049;-66
2023/06/09 07:15:38;;;;;;;4.40;2.30;;;;;;;;;;5061061;28;20072;-63
2023/06/09 07:18:08;;;;;;;6.03;2.33;;;;;;;;;;5069378;28;20068;-63
2023/06/09 07:20:36;;;;;;;3.88;2.10;;;;;;;;;;5071924;28;20083;-64
2023/06/09 07:23:06;;;;;;;3.65;2.10;;;;;;;;;;5071201;28;20125;-63
2023/06/09 07:25:34;;;;;;;3.60;1.92;;;;;;;;;;5070192;28;20551;-63
2023/06/09 07:28:03;;;;;;;6.78;2.20;;;;;;;;;;5071024;28;20052;-63
2023/06/09 07:30:31;;;;;;;3.08;1.90;;;;;;;;;;5071083;28;20044;-62
2023/06/09 07:33:00;;;;;;;4.18;2.33;;;;;;;;;;5070582;28;20816;-62
2023/06/09 07:35:29;;;;;;;4.63;2.15;;;;;;;;;;5070194;28;20048;-62
2023/06/09 07:37:58;;;;;;;2.72;1.63;;;;;;;;;;5070942;28;20044;-65
2023/06/09 07:40:28;;;;;;;3.35;1.40;;;;;;;;;;5070668;28;20135;-65
2023/06/09 07:42:57;;;;;;;3.10;1.73;;;;;;;;;;5070588;28;20477;-63
2023/06/09 07:45:25;;;;;;;4.20;1.38;;;;;;;;;;5070449;28;20044;-62
2023/06/09 07:47:54;;;;;;;3.55;1.85;;;;;;;;;;5071079;28;20049;-64
2023/06/09 07:50:23;;;;;;;3.92;1.77;;;;;;;;;;5070690;28;20044;-63
2023/06/09 07:52:51;;;;;;;3.05;1.58;;;;;;;;;;5070430;28;20056;-63
2023/06/09 07:55:20;;;;;;;3.35;1.98;;;;;;;;;;5069808;28;20048;-63
2023/06/09 07:57:50;;;;;;;3.15;2.17;;;;;;;;;;5068055;28;20055;-63
2023/06/09 08:00:19;;;;;;;3.28;1.60;;;;;;;;;;5070073;28;20040;-63
2023/06/09 08:02:50;;;;;;;4.90;1.77;;;;;;;;;;5051025;28;20469;-63
2023/06/09 08:05:18;;;;;;;2.85;1.63;;;;;;;;;;5049916;28;20048;-64
2023/06/09 08:07:47;;;;;;;3.10;1.92;;;;;;;;;;5050083;28;20084;-63
2023/06/09 08:10:15;;;;;;;2.40;1.50;;;;;;;;;;5050590;28;20049;-62
2023/06/09 08:12:44;;;;;;;2.63;1.70;;;;;;;;;;5050362;28;20456;-63
2023/06/09 08:15:15;;;;;;;4.15;2.40;;;;;;;;;;5049625;28;20099;-65
2023/06/09 08:17:44;;;;;;;2.90;1.95;;;;;;;;;;5049783;28;20115;-65
2023/06/09 08:20:12;;;;;;;2.67;1.92;;;;;;;;;;5050371;28;20049;-62
2023/06/09 08:22:41;;;;;;;4.50;2.35;;;;;;;;;;5050193;28;20044;-62
2023/06/09 08:25:11;;;;;;;3.28;1.85;;;;;;;;;;5049216;28;20080;-63
2023/06/09 08:27:39;;;;;;;4.15;2.28;;;;;;;;;;5050086;28;20419;-63
2023/06/09 08:30:08;;;;;;;4.85;2.38;;;;;;;;;;5050223;28;20044;-65
2023/06/09 08:32:40;;;;;;;3.60;2.15;;;;;;;;;;5049807;28;20049;-66
2023/06/09 08:35:09;;;;;;;4.45;3.03;;;;;;;;;;5049309;28;20391;-63
2023/06/09 08:37:38;;;;;;;4.85;3.08;;;;;;;;;;5050363;28;20048;-63
2023/06/09 08:40:08;;;;;;;5.85;2.95;;;;;;;;;;5050076;28;20397;-63
2023/06/09 08:42:38;;;;;;;4.15;2.63;;;;;;;;;;5049942;28;20056;-64
2023/06/09 08:45:07;;;;;;;4.65;2.83;;;;;;;;;;5049305;28;20079;-62
2023/06/09 08:47:39;;;;;;;3.88;2.55;;;;;;;;;;5050479;28;20053;-62
2023/06/09 08:50:08;;;;;;;4.75;2.95;;;;;;;;;;5050020;28;20132;-63
2023/06/09 08:52:38;;;;;;;4.60;2.90;;;;;;;;;;5049574;28;20465;-64
2023/06/09 08:55:08;;;;;;;3.40;2.60;;;;;;;;;;5049333;28;20057;-65
2023/06/09 08:57:37;;;;;;;5.55;3.00;;;;;;;;;;5050056;28;20448;-64
2023/06/09 09:00:11;;;;;;;4.47;2.60;;;;;;;;;;5049981;28;20481;-63
2023/06/09 09:02:43;;;;;;;5.13;2.70;;;;;;;;;;5050019;28;20053;-64
2023/06/09 09:05:11;;;;;;;5.15;3.03;;;;;;;;;;5048979;28;20445;-66
2023/06/09 09:07:40;;;;;;;5.72;3.42;;;;;;;;;;5049613;28;20436;-62
2023/06/09 09:10:09;;;;;;;4.15;2.55;;;;;;;;;;5049494;28;20132;-63
2023/06/09 09:12:48;;;;;;;4.80;2.90;;;;;;;;;;5048353;28;20125;-65
2023/06/09 09:15:16;;;;;;;5.47;2.85;;;;;;;;;;5049237;28;20491;-65
2023/06/09 09:17:47;;;;;;;3.42;2.08;;;;;;;;;;5049754;28;20098;-64
2023/06/09 09:20:16;;;;;;;4.47;2.30;;;;;;;;;;5049265;28;20052;-63
2023/06/09 09:22:46;;;;;;;4.82;2.80;;;;;;;;;;5051608;28;20544;-65
2023/06/09 09:25:25;;;;;;;6.93;2.30;;;;;;;;;;5053343;28;20049;-63
2023/06/09 09:28:06;;;;;;;3.95;2.20;;;;;;;;;;5053582;28;20587;-64
2023/06/09 09:30:41;;;;;;;3.95;2.28;;;;;;;;;;5053179;28;20048;-64
2023/06/09 09:33:11;;;;;;;7.32;2.17;;;;;;;;;;5053422;28;20088;-63
2023/06/09 09:35:40;;;;;;;3.40;2.50;;;;;;;;;;5052572;28;20080;-63
2023/06/09 09:38:12;;;;;;;3.05;2.17;;;;;;;;;;5053128;28;20084;-65
2023/06/09 09:40:43;;;;;;;4.28;2.05;;;;;;;;;;5053237;28;20056;-64
2023/06/09 09:43:12;;;;;;;3.83;2.10;;;;;;;;;;5053575;28;20045;-63
2023/06/09 09:45:41;;;;;;;4.80;2.95;;;;;;;;;;5053085;28;20045;-64
2023/06/09 09:48:11;;;;;;;4.03;2.38;;;;;;;;;;5053781;28;20556;-64
2023/06/09 09:50:40;;;;;;;4.78;2.17;;;;;;;;;;5053061;28;20037;-64
2023/06/09 09:53:08;;;;;;;3.17;1.90;;;;;;;;;;5053332;28;20057;-66
2023/06/09 09:55:38;;;;;;;2.55;1.50;;;;;;;;;;5052148;28;20075;-63
2023/06/09 09:58:07;;;;;;;2.80;2.03;;;;;;;;;;5052954;28;20044;-63
2023/06/09 10:00:36;;;;;;;5.60;3.15;;;;;;;;;;5052814;28;20088;-64
2023/06/09 10:03:08;;;;;;;4.47;2.40;;;;;;;;;;5052950;28;20202;-65
2023/06/09 10:05:40;;;;;;;2.90;1.77;;;;;;;;;;5051927;28;20048;-63
2023/06/09 10:08:10;;;;;;;2.90;2.13;;;;;;;;;;5042417;28;20583;-64
2023/06/09 10:10:41;;;;;;;2.85;1.83;;;;;;;;;;5053067;28;20128;-64
2023/06/09 10:13:09;;;;;;;3.13;2.08;;;;;;;;;;5052736;28;20068;-64
2023/06/09 10:15:38;;;;;;;4.30;2.28;;;;;;;;;;5051408;28;20041;-66
2023/06/09 10:18:07;;;;;;;3.53;2.30;;;;;;;;;;5052246;28;20084;-64
2023/06/09 10:20:35;;;;;;;4.90;2.35;;;;;;;;;;5052133;28;20045;-65
2023/06/09 10:23:06;;;;;;;2.58;1.77;;;;;;;;;;5052630;28;20775;-63
2023/06/09 10:25:35;;;;;;;4.97;2.00;;;;;;;;;;5051862;28;20052;-65
2023/06/09 10:28:03;;;;;;;4.18;2.50;;;;;;;;;;5052657;28;20110;-66
2023/06/09 10:30:32;;;;;;;3.72;2.28;;;;;;;;;;5052266;28;20045;-64
2023/06/09 10:33:04;;;;;;;3.45;2.30;;;;;;;;;;5051414;28;20052;-64
2023/06/09 10:35:34;;;;;;;3.65;2.20;;;;;;;;;;5051442;28;20076;-63
2023/06/09 10:38:17;;;;;;;3.47;2.13;;;;;;;;;;5052435;28;20128;-65
2023/06/09 10:40:49;;;;;;;2.72;1.85;;;;;;;;;;5051892;28;20053;-65
2023/06/09 10:43:25;;;;;;;2.17;1.75;;;;;;;;;;5051838;28;20053;-63
2023/06/09 10:45:54;;;;;;;3.03;1.90;;;;;;;;;;5052153;28;20091;-61
2023/06/09 10:48:42;;;;;;;2.15;1.70;;;;;;;;;;5052451;28;20053;-65
2023/06/09 10:51:29;;;;;;;3.30;1.85;;;;;;;;;;5051566;28;20438;-65
2023/06/09 10:54:16;;;;;;;2.85;1.85;;;;;;;;;;5039293;28;20063;-63
2023/06/09 10:56:52;;;;;;;2.13;1.55;;;;;;;;;;5051035;28;20559;-66
2023/06/09 10:59:35;;;;;;;3.38;1.67;;;;;;;;;;5051547;28;20452;-64
2023/06/09 11:02:21;;;;;;;3.85;1.80;;;;;;;;;;5022741;28;20061;-63
2023/06/09 11:04:52;;;;;;;1.90;1.35;;;;;;;;;;5049457;28;20128;-64
2023/06/09 11:07:21;;;;;;;1.67;1.33;;;;;;;;;;5051185;28;20490;-64
2023/06/09 11:10:11;;;;;;;2.38;1.42;;;;;;;;;;5051195;28;20045;-64
2023/06/09 11:12:45;;;;;;;2.35;1.90;;;;;;;;;;5051536;28;20045;-65
2023/06/09 11:15:15;;;;;;;2.25;1.45;;;;;;;;;;5051212;28;20083;-66
2023/06/09 11:17:44;;;;;;;2.88;1.88;;;;;;;;;;5051358;28;20047;-65
2023/06/09 11:20:14;;;;;;;2.67;1.33;;;;;;;;;;5051193;28;20079;-66
2023/06/09 11:23:03;;;;;;;2.10;1.30;;;;;;;;;;5051315;28;20045;-65
2023/06/09 11:25:35;;;;;;;2.10;1.27;;;;;;;;;;5051446;28;20037;-64
2023/06/09 11:28:22;;;;;;;2.47;1.48;;;;;;;;;;5051398;28;20041;-65
2023/06/09 11:31:01;;;;;;;2.45;1.70;;;;;;;;;;5051114;28;20068;-65
2023/06/09 11:33:47;;;;;;;2.45;1.60;;;;;;;;;;5051224;28;20091;-66
2023/06/09 11:36:27;;;;;;;2.75;1.70;;;;;;;;;;5039658;28;20505;-65
2023/06/09 11:39:00;;;;;;;2.42;1.40;;;;;;;;;;5050842;28;20049;-67
2023/06/09 11:41:28;;;;;;;2.63;2.05;;;;;;;;;;5051273;28;20095;-65
2023/06/09 11:43:58;;;;;;;2.75;1.65;;;;;;;;;;5051031;28;20118;-65
2023/06/09 11:46:27;;;;;;;2.83;1.70;;;;;;;;;;5049854;28;20106;-66
2023/06/09 11:49:08;;;;;;;3.90;2.08;;;;;;;;;;5050678;28;20380;-65
2023/06/09 11:52:02;;;;;;;3.55;1.90;;;;;;;;;;5051084;28;20131;-65
2023/06/09 11:54:45;;;;;;;4.07;1.92;;;;;;;;;;5050781;28;20049;-64
2023/06/09 11:57:15;;;;;;;2.63;2.05;;;;;;;;;;5050575;28;20128;-64
2023/06/09 11:59:45;;;;;;;2.80;1.90;;;;;;;;;;5050573;28;20387;-65
2023/06/09 12:02:17;;;;;;;2.03;1.67;;;;;;;;;;5045334;28;20057;-64
2023/06/09 12:04:46;;;;;;;3.17;1.98;;;;;;;;;;5046269;28;20561;-64
2023/06/09 12:07:15;;;;;;;3.03;2.00;;;;;;;;;;5050398;28;20114;-67
2023/06/09 12:09:44;;;;;;;3.30;1.50;;;;;;;;;;5050252;28;20057;-65
2023/06/09 12:12:12;;;;;;;2.00;1.60;;;;;;;;;;5049779;28;20484;-64
2023/06/09 12:14:41;;;;;;;2.50;1.70;;;;;;;;;;5050041;28;20452;-64
2023/06/09 12:17:10;;;;;;;3.58;1.75;;;;;;;;;;5050065;28;20498;-65
2023/06/09 12:19:39;;;;;;;2.67;1.70;;;;;;;;;;5050572;28;20060;-65
2023/06/09 12:22:07;;;;;;;2.30;1.70;;;;;;;;;;5050212;28;20130;-66
2023/06/09 12:24:36;;;;;;;3.45;1.67;;;;;;;;;;5049375;28;20075;-64
2023/06/09 12:27:14;;;;;;;3.42;1.92;;;;;;;;;;5050383;28;20417;-65
2023/06/09 12:29:42;;;;;;;2.83;1.63;;;;;;;;;;5050439;28;20378;-67
2023/06/09 12:32:22;;;;;;;3.35;1.75;;;;;;;;;;5049867;28;20053;-64
2023/06/09 12:34:52;;;;;;;1.73;1.50;;;;;;;;;;5049582;28;20068;-64
2023/06/09 12:37:21;;;;;;;2.80;2.10;;;;;;;;;;5050349;28;20111;-65
2023/06/09 12:39:49;;;;;;;2.97;1.92;;;;;;;;;;5050350;28;20053;-64
2023/06/09 12:42:17;;;;;;;2.20;1.63;;;;;;;;;;5050477;28;20549;-68
2023/06/09 12:44:49;;;;;;;3.03;1.92;;;;;;;;;;5049592;28;20055;-66
2023/06/09 12:47:19;;;;;;;4.88;2.20;;;;;;;;;;5050113;28;20464;-66
2023/06/09 12:49:47;;;;;;;3.20;1.90;;;;;;;;;;5050493;28;20406;-64
2023/06/09 12:52:16;;;;;;;3.00;1.90;;;;;;;;;;5050058;28;20551;-64
2023/06/09 12:54:44;;;;;;;2.83;1.90;;;;;;;;;;5049524;28;20473;-66
2023/06/09 12:57:25;;;;;;;3.15;1.98;;;;;;;;;;5051325;28;20099;-65
2023/06/09 12:59:53;;;;;;;2.90;2.03;;;;;;;;;;5054246;28;20345;-63
2023/06/09 13:02:40;;;;;;;3.13;2.00;;;;;;;;;;5054377;28;20057;-64
2023/06/09 13:05:08;;;;;;;2.70;1.92;;;;;;;;;;5052966;28;20045;-64
2023/06/09 13:07:37;;;;;;;5.13;2.17;;;;;;;;;;5053437;28;20434;-65
2023/06/09 13:10:06;;;;;;;2.10;1.67;;;;;;;;;;5053476;28;20478;-66
2023/06/09 13:12:35;;;;;;;2.53;2.00;;;;;;;;;;5053828;28;20379;-64
2023/06/09 13:15:03;;;;;;;2.50;1.80;;;;;;;;;;5040533;28;20456;-64
2023/06/09 13:17:31;;;;;;;3.05;1.90;;;;;;;;;;5053468;28;20418;-64
2023/06/09 13:20:02;;;;;;;2.65;1.95;;;;;;;;;;5053609;28;20413;-66
2023/06/09 13:22:31;;;;;;;3.22;2.10;;;;;;;;;;5053372;28;20122;-64
2023/06/09 13:24:59;;;;;;;2.65;2.10;;;;;;;;;;5052756;28;20045;-64
2023/06/09 13:27:27;;;;;;;3.40;2.03;;;;;;;;;;5053691;28;20053;-66
2023/06/09 13:29:56;;;;;;;2.35;1.70;;;;;;;;;;5053608;28;20048;-64
2023/06/09 13:32:24;;;;;;;2.63;2.10;;;;;;;;;;5053501;28;20515;-65
2023/06/09 13:34:53;;;;;;;2.92;1.80;;;;;;;;;;5052726;28;20436;-66
2023/06/09 13:37:22;;;;;;;3.40;1.60;;;;;;;;;;5053116;28;20512;-65
2023/06/09 13:39:51;;;;;;;3.05;1.98;;;;;;;;;;5053706;28;20048;-64
2023/06/09 13:42:19;;;;;;;2.78;1.90;;;;;;;;;;5053522;28;20053;-64
2023/06/09 13:44:48;;;;;;;2.47;1.67;;;;;;;;;;5052972;28;20064;-65
2023/06/09 13:47:16;;;;;;;6.05;2.17;;;;;;;;;;5052710;28;20061;-64
2023/06/09 13:49:45;;;;;;;2.40;1.95;;;;;;;;;;5053616;28;20061;-65
2023/06/09 13:52:14;;;;;;;2.40;1.75;;;;;;;;;;5052963;28;20476;-64
2023/06/09 13:54:43;;;;;;;3.60;2.10;;;;;;;;;;5052682;28;20379;-66
2023/06/09 13:57:12;;;;;;;2.63;1.90;;;;;;;;;;5047374;28;20517;-65
2023/06/09 13:59:40;;;;;;;2.92;1.83;;;;;;;;;;5052861;28;20476;-64
2023/06/09 14:02:09;;;;;;;3.83;1.90;;;;;;;;;;5066728;28;20117;-66
2023/06/09 14:04:38;;;;;;;3.38;1.83;;;;;;;;;;5072628;28;20048;-64
2023/06/09 14:07:06;;;;;;;4.13;2.00;;;;;;;;;;5073024;28;20052;-64
2023/06/09 14:09:35;;;;;;;4.00;2.10;;;;;;;;;;5071927;28;20044;-67
2023/06/09 14:12:05;;;;;;;3.78;2.22;;;;;;;;;;5069293;28;20048;-66
2023/06/09 14:14:37;;;;;;;2.80;1.92;;;;;;;;;;5072448;28;20051;-65
2023/06/09 14:17:06;;;;;;;2.03;1.60;;;;;;;;;;5072370;28;20048;-63
2023/06/09 14:19:35;;;;;;;3.88;1.88;;;;;;;;;;5072595;28;20041;-64
2023/06/09 14:22:05;;;;;;;3.75;2.05;;;;;;;;;;5072197;28;20079;-64
2023/06/09 14:24:33;;;;;;;4.72;2.00;;;;;;;;;;5071727;28;20056;-64
2023/06/09 14:27:02;;;;;;;2.92;2.25;;;;;;;;;;5072456;28;20402;-65
2023/06/09 14:29:32;;;;;;;3.22;1.90;;;;;;;;;;5072625;28;20094;-64
2023/06/09 14:32:00;;;;;;;2.45;1.85;;;;;;;;;;5071593;28;20087;-66
2023/06/09 14:34:29;;;;;;;3.00;2.00;;;;;;;;;;5071135;28;20480;-65
2023/06/09 14:36:58;;;;;;;3.67;2.40;;;;;;;;;;5072049;28;20056;-65
2023/06/09 14:39:26;;;;;;;2.70;2.08;;;;;;;;;;5072434;28;20052;-64
2023/06/09 14:41:55;;;;;;;4.53;1.98;;;;;;;;;;5071772;28;20056;-64
2023/06/09 14:44:23;;;;;;;3.08;2.35;;;;;;;;;;5072183;28;20428;-65
2023/06/09 14:46:53;;;;;;;3.65;2.20;;;;;;;;;;5071136;28;20075;-66
2023/06/09 14:49:21;;;;;;;2.72;1.80;;;;;;;;;;5072321;28;20126;-64
2023/06/09 14:51:50;;;;;;;2.78;1.90;;;;;;;;;;5071789;28;20052;-63
2023/06/09 14:54:18;;;;;;;2.45;1.75;;;;;;;;;;5071894;28;20076;-63
2023/06/09 14:56:47;;;;;;;2.58;1.95;;;;;;;;;;5071176;28;20056;-65
2023/06/09 14:59:15;;;;;;;2.70;1.70;;;;;;;;;;5072068;28;20056;-64
2023/06/09 15:01:48;;;;;;;2.42;1.83;;;;;;;;;;5071295;28;20452;-63